sensor_id;sensor_type;location;lat;lon;timestamp;P1;durP1;ratioP1;P2;durP2;ratioP2
76121;SDS011;64853;53.200;6.080;2022-11-24T00:01:29;0.70;;;0.25;;
76121;SDS011;64853;53.200;6.080;2022-11-24T00:03:57;0.50;;;0.30;;
76121;SDS011;64853;53.200;6.080;2022-11-24T00:06:24;1.10;;;0.40;;
76121;SDS011;64853;53.200;6.080;2022-11-24T00:08:52;0.70;;;0.40;;
76121;SDS011;64853;53.200;6.080;2022-11-24T00:11:21;0.88;;;0.40;;
76121;SDS011;64853;53.200;6.080;2022-11-24T00:13:48;0.70;;;0.40;;
76121;SDS011;64853;53.200;6.080;2022-11-24T00:16:17;0.95;;;0.30;;
76121;SDS011;64853;53.200;6.080;2022-11-24T00:18:45;0.98;;;0.50;;
76121;SDS011;64853;53.200;6.080;2022-11-24T00:21:16;1.08;;;0.30;;
76121;SDS011;64853;53.200;6.080;2022-11-24T00:23:43;0.60;;;0.32;;
76121;SDS011;64853;53.200;6.080;2022-11-24T00:26:11;0.50;;;0.40;;
76121;SDS011;64853;53.200;6.080;2022-11-24T00:28:39;0.73;;;0.45;;
76121;SDS011;64853;53.200;6.080;2022-11-24T00:31:13;1.48;;;0.32;;
76121;SDS011;64853;53.200;6.080;2022-11-24T00:33:42;1.52;;;0.52;;
76121;SDS011;64853;53.200;6.080;2022-11-24T00:36:08;1.38;;;0.30;;
76121;SDS011;64853;53.200;6.080;2022-11-24T00:38:35;1.13;;;0.43;;
76121;SDS011;64853;53.200;6.080;2022-11-24T00:41:01;1.00;;;0.43;;
76121;SDS011;64853;53.200;6.080;2022-11-24T00:43:28;1.00;;;0.47;;
76121;SDS011;64853;53.200;6.080;2022-11-24T00:45:54;0.65;;;0.30;;
76121;SDS011;64853;53.200;6.080;2022-11-24T00:48:21;0.98;;;0.30;;
76121;SDS011;64853;53.200;6.080;2022-11-24T00:50:55;1.17;;;0.70;;
76121;SDS011;64853;53.200;6.080;2022-11-24T00:53:22;0.60;;;0.40;;
76121;SDS011;64853;53.200;6.080;2022-11-24T00:55:49;1.00;;;0.50;;
76121;SDS011;64853;53.200;6.080;2022-11-24T00:58:15;1.35;;;0.40;;
76121;SDS011;64853;53.200;6.080;2022-11-24T01:00:42;0.70;;;0.30;;
76121;SDS011;64853;53.200;6.080;2022-11-24T01:03:08;1.35;;;0.60;;
76121;SDS011;64853;53.200;6.080;2022-11-24T01:05:35;0.57;;;0.30;;
76121;SDS011;64853;53.200;6.080;2022-11-24T01:08:03;1.27;;;0.50;;
76121;SDS011;64853;53.200;6.080;2022-11-24T01:10:29;0.50;;;0.30;;
76121;SDS011;64853;53.200;6.080;2022-11-24T01:12:56;1.17;;;0.60;;
76121;SDS011;64853;53.200;6.080;2022-11-24T01:15:23;0.55;;;0.32;;
76121;SDS011;64853;53.200;6.080;2022-11-24T01:17:49;1.00;;;0.22;;
76121;SDS011;64853;53.200;6.080;2022-11-24T01:20:16;0.70;;;0.40;;
76121;SDS011;64853;53.200;6.080;2022-11-24T01:22:43;1.08;;;0.50;;
76121;SDS011;64853;53.200;6.080;2022-11-24T01:25:11;1.45;;;0.52;;
76121;SDS011;64853;53.200;6.080;2022-11-24T01:27:37;0.80;;;0.38;;
76121;SDS011;64853;53.200;6.080;2022-11-24T01:30:04;1.08;;;0.40;;
76121;SDS011;64853;53.200;6.080;2022-11-24T01:32:32;0.85;;;0.50;;
76121;SDS011;64853;53.200;6.080;2022-11-24T01:35:00;1.95;;;0.55;;
76121;SDS011;64853;53.200;6.080;2022-11-24T01:37:26;1.50;;;0.73;;
76121;SDS011;64853;53.200;6.080;2022-11-24T01:39:53;0.47;;;0.20;;
76121;SDS011;64853;53.200;6.080;2022-11-24T01:42:21;0.47;;;0.30;;
76121;SDS011;64853;53.200;6.080;2022-11-24T01:44:47;1.27;;;0.50;;
76121;SDS011;64853;53.200;6.080;2022-11-24T01:47:22;1.00;;;0.38;;
76121;SDS011;64853;53.200;6.080;2022-11-24T01:49:57;0.68;;;0.35;;
76121;SDS011;64853;53.200;6.080;2022-11-24T01:52:26;0.80;;;0.40;;
76121;SDS011;64853;53.200;6.080;2022-11-24T01:54:56;1.65;;;0.68;;
76121;SDS011;64853;53.200;6.080;2022-11-24T01:59:56;1.92;;;0.40;;
76121;SDS011;64853;53.200;6.080;2022-11-24T02:02:27;0.93;;;0.60;;
76121;SDS011;64853;53.200;6.080;2022-11-24T02:04:54;0.63;;;0.30;;
76121;SDS011;64853;53.200;6.080;2022-11-24T02:07:22;1.13;;;0.40;;
76121;SDS011;64853;53.200;6.080;2022-11-24T02:09:50;1.58;;;0.55;;
76121;SDS011;64853;53.200;6.080;2022-11-24T02:12:20;0.75;;;0.30;;
76121;SDS011;64853;53.200;6.080;2022-11-24T02:14:49;0.85;;;0.40;;
76121;SDS011;64853;53.200;6.080;2022-11-24T02:17:16;1.15;;;0.40;;
76121;SDS011;64853;53.200;6.080;2022-11-24T02:19:45;2.58;;;0.80;;
76121;SDS011;64853;53.200;6.080;2022-11-24T02:22:19;0.93;;;0.30;;
76121;SDS011;64853;53.200;6.080;2022-11-24T02:24:51;0.40;;;0.30;;
76121;SDS011;64853;53.200;6.080;2022-11-24T02:27:22;1.27;;;0.50;;
76121;SDS011;64853;53.200;6.080;2022-11-24T02:29:48;1.27;;;0.70;;
76121;SDS011;64853;53.200;6.080;2022-11-24T02:32:15;0.50;;;0.40;;
76121;SDS011;64853;53.200;6.080;2022-11-24T02:34:43;1.25;;;0.40;;
76121;SDS011;64853;53.200;6.080;2022-11-24T02:37:10;0.85;;;0.38;;
76121;SDS011;64853;53.200;6.080;2022-11-24T02:39:36;0.32;;;0.20;;
76121;SDS011;64853;53.200;6.080;2022-11-24T02:42:03;1.33;;;0.20;;
76121;SDS011;64853;53.200;6.080;2022-11-24T02:44:35;0.70;;;0.20;;
76121;SDS011;64853;53.200;6.080;2022-11-24T02:47:06;1.65;;;0.52;;
76121;SDS011;64853;53.200;6.080;2022-11-24T02:49:34;0.85;;;0.40;;
76121;SDS011;64853;53.200;6.080;2022-11-24T02:52:01;0.68;;;0.20;;
76121;SDS011;64853;53.200;6.080;2022-11-24T02:54:28;2.47;;;0.70;;
76121;SDS011;64853;53.200;6.080;2022-11-24T02:56:55;0.95;;;0.43;;
76121;SDS011;64853;53.200;6.080;2022-11-24T02:59:22;1.42;;;0.70;;
76121;SDS011;64853;53.200;6.080;2022-11-24T03:01:50;1.00;;;0.40;;
76121;SDS011;64853;53.200;6.080;2022-11-24T03:04:16;1.42;;;0.40;;
76121;SDS011;64853;53.200;6.080;2022-11-24T03:06:43;0.82;;;0.30;;
76121;SDS011;64853;53.200;6.080;2022-11-24T03:09:09;0.73;;;0.35;;
76121;SDS011;64853;53.200;6.080;2022-11-24T03:11:36;0.47;;;0.30;;
76121;SDS011;64853;53.200;6.080;2022-11-24T03:14:02;1.50;;;0.50;;
76121;SDS011;64853;53.200;6.080;2022-11-24T03:16:29;1.25;;;0.30;;
76121;SDS011;64853;53.200;6.080;2022-11-24T03:18:57;1.17;;;0.65;;
76121;SDS011;64853;53.200;6.080;2022-11-24T03:21:24;1.42;;;0.45;;
76121;SDS011;64853;53.200;6.080;2022-11-24T03:23:50;1.48;;;0.50;;
76121;SDS011;64853;53.200;6.080;2022-11-24T03:26:18;1.45;;;0.30;;
76121;SDS011;64853;53.200;6.080;2022-11-24T03:28:46;0.57;;;0.20;;
76121;SDS011;64853;53.200;6.080;2022-11-24T03:31:12;0.80;;;0.32;;
76121;SDS011;64853;53.200;6.080;2022-11-24T03:33:39;1.02;;;0.50;;
76121;SDS011;64853;53.200;6.080;2022-11-24T03:36:08;1.80;;;0.40;;
76121;SDS011;64853;53.200;6.080;2022-11-24T03:38:35;0.55;;;0.25;;
76121;SDS011;64853;53.200;6.080;2022-11-24T03:41:01;1.13;;;0.40;;
76121;SDS011;64853;53.200;6.080;2022-11-24T03:43:27;0.57;;;0.30;;
76121;SDS011;64853;53.200;6.080;2022-11-24T03:45:54;1.45;;;0.20;;
76121;SDS011;64853;53.200;6.080;2022-11-24T03:48:20;0.75;;;0.30;;
76121;SDS011;64853;53.200;6.080;2022-11-24T03:50:51;0.52;;;0.30;;
76121;SDS011;64853;53.200;6.080;2022-11-24T03:53:20;0.90;;;0.30;;
76121;SDS011;64853;53.200;6.080;2022-11-24T03:55:47;2.33;;;0.50;;
76121;SDS011;64853;53.200;6.080;2022-11-24T03:58:14;0.65;;;0.28;;
76121;SDS011;64853;53.200;6.080;2022-11-24T04:00:40;0.90;;;0.32;;
76121;SDS011;64853;53.200;6.080;2022-11-24T04:03:07;0.40;;;0.20;;
76121;SDS011;64853;53.200;6.080;2022-11-24T04:05:33;0.80;;;0.32;;
76121;SDS011;64853;53.200;6.080;2022-11-24T04:08:01;0.75;;;0.43;;
76121;SDS011;64853;53.200;6.080;2022-11-24T04:10:31;0.55;;;0.22;;
76121;SDS011;64853;53.200;6.080;2022-11-24T04:13:00;0.22;;;0.17;;
76121;SDS011;64853;53.200;6.080;2022-11-24T04:15:26;1.83;;;0.30;;
76121;SDS011;64853;53.200;6.080;2022-11-24T04:17:53;1.23;;;0.52;;
76121;SDS011;64853;53.200;6.080;2022-11-24T04:20:20;1.30;;;0.28;;
76121;SDS011;64853;53.200;6.080;2022-11-24T04:22:48;1.10;;;0.28;;
76121;SDS011;64853;53.200;6.080;2022-11-24T04:25:15;0.65;;;0.22;;
76121;SDS011;64853;53.200;6.080;2022-11-24T04:27:43;0.55;;;0.30;;
76121;SDS011;64853;53.200;6.080;2022-11-24T04:30:10;0.52;;;0.20;;
76121;SDS011;64853;53.200;6.080;2022-11-24T04:32:37;1.02;;;0.30;;
76121;SDS011;64853;53.200;6.080;2022-11-24T04:35:03;0.90;;;0.20;;
76121;SDS011;64853;53.200;6.080;2022-11-24T04:37:30;0.65;;;0.30;;
76121;SDS011;64853;53.200;6.080;2022-11-24T04:39:56;1.17;;;0.20;;
76121;SDS011;64853;53.200;6.080;2022-11-24T04:42:23;0.65;;;0.30;;
76121;SDS011;64853;53.200;6.080;2022-11-24T04:44:51;0.70;;;0.40;;
76121;SDS011;64853;53.200;6.080;2022-11-24T04:47:19;1.25;;;0.40;;
76121;SDS011;64853;53.200;6.080;2022-11-24T04:49:47;0.82;;;0.38;;
76121;SDS011;64853;53.200;6.080;2022-11-24T04:52:14;1.50;;;0.30;;
76121;SDS011;64853;53.200;6.080;2022-11-24T04:54:41;1.33;;;0.60;;
76121;SDS011;64853;53.200;6.080;2022-11-24T04:57:08;0.77;;;0.25;;
76121;SDS011;64853;53.200;6.080;2022-11-24T04:59:40;0.40;;;0.17;;
76121;SDS011;64853;53.200;6.080;2022-11-24T05:02:08;1.48;;;0.30;;
76121;SDS011;64853;53.200;6.080;2022-11-24T05:04:35;1.58;;;0.40;;
76121;SDS011;64853;53.200;6.080;2022-11-24T05:07:01;0.70;;;0.20;;
76121;SDS011;64853;53.200;6.080;2022-11-24T05:09:28;1.52;;;0.60;;
76121;SDS011;64853;53.200;6.080;2022-11-24T05:11:54;0.90;;;0.30;;
76121;SDS011;64853;53.200;6.080;2022-11-24T05:14:21;0.75;;;0.20;;
76121;SDS011;64853;53.200;6.080;2022-11-24T05:16:48;1.17;;;0.50;;
76121;SDS011;64853;53.200;6.080;2022-11-24T05:19:16;0.95;;;0.40;;
76121;SDS011;64853;53.200;6.080;2022-11-24T05:21:42;0.80;;;0.30;;
76121;SDS011;64853;53.200;6.080;2022-11-24T05:24:09;0.65;;;0.32;;
76121;SDS011;64853;53.200;6.080;2022-11-24T05:26:35;0.55;;;0.40;;
76121;SDS011;64853;53.200;6.080;2022-11-24T05:29:01;1.17;;;0.30;;
76121;SDS011;64853;53.200;6.080;2022-11-24T05:31:28;1.20;;;0.30;;
76121;SDS011;64853;53.200;6.080;2022-11-24T05:33:54;0.90;;;0.25;;
76121;SDS011;64853;53.200;6.080;2022-11-24T05:36:22;0.68;;;0.30;;
76121;SDS011;64853;53.200;6.080;2022-11-24T05:41:41;1.13;;;0.38;;
76121;SDS011;64853;53.200;6.080;2022-11-24T05:44:07;1.08;;;0.15;;
76121;SDS011;64853;53.200;6.080;2022-11-24T05:46:34;0.60;;;0.30;;
76121;SDS011;64853;53.200;6.080;2022-11-24T05:49:00;0.40;;;0.30;;
76121;SDS011;64853;53.200;6.080;2022-11-24T05:51:28;1.33;;;0.30;;
76121;SDS011;64853;53.200;6.080;2022-11-24T05:53:55;2.53;;;0.50;;
76121;SDS011;64853;53.200;6.080;2022-11-24T05:56:21;1.13;;;0.20;;
76121;SDS011;64853;53.200;6.080;2022-11-24T05:58:48;0.90;;;0.30;;
76121;SDS011;64853;53.200;6.080;2022-11-24T06:01:14;0.57;;;0.20;;
76121;SDS011;64853;53.200;6.080;2022-11-24T06:03:40;0.82;;;0.30;;
76121;SDS011;64853;53.200;6.080;2022-11-24T06:06:07;0.90;;;0.38;;
76121;SDS011;64853;53.200;6.080;2022-11-24T06:08:35;0.60;;;0.30;;
76121;SDS011;64853;53.200;6.080;2022-11-24T06:11:02;1.45;;;0.47;;
76121;SDS011;64853;53.200;6.080;2022-11-24T06:13:41;1.58;;;0.47;;
76121;SDS011;64853;53.200;6.080;2022-11-24T06:16:08;1.05;;;0.40;;
76121;SDS011;64853;53.200;6.080;2022-11-24T06:18:34;1.15;;;0.43;;
76121;SDS011;64853;53.200;6.080;2022-11-24T06:21:01;0.47;;;0.20;;
76121;SDS011;64853;53.200;6.080;2022-11-24T06:23:27;0.57;;;0.30;;
76121;SDS011;64853;53.200;6.080;2022-11-24T06:25:57;0.65;;;0.43;;
76121;SDS011;64853;53.200;6.080;2022-11-24T06:28:23;0.55;;;0.32;;
76121;SDS011;64853;53.200;6.080;2022-11-24T06:30:50;0.57;;;0.20;;
76121;SDS011;64853;53.200;6.080;2022-11-24T06:33:16;0.55;;;0.20;;
76121;SDS011;64853;53.200;6.080;2022-11-24T06:35:43;1.45;;;0.40;;
76121;SDS011;64853;53.200;6.080;2022-11-24T06:38:09;0.82;;;0.30;;
76121;SDS011;64853;53.200;6.080;2022-11-24T06:40:36;1.05;;;0.38;;
76121;SDS011;64853;53.200;6.080;2022-11-24T06:43:03;1.17;;;0.63;;
76121;SDS011;64853;53.200;6.080;2022-11-24T06:45:30;0.40;;;0.20;;
76121;SDS011;64853;53.200;6.080;2022-11-24T06:47:56;0.88;;;0.20;;
76121;SDS011;64853;53.200;6.080;2022-11-24T06:50:23;1.63;;;0.30;;
76121;SDS011;64853;53.200;6.080;2022-11-24T06:52:49;0.75;;;0.30;;
76121;SDS011;64853;53.200;6.080;2022-11-24T06:55:15;0.20;;;0.10;;
76121;SDS011;64853;53.200;6.080;2022-11-24T06:57:42;1.65;;;0.40;;
76121;SDS011;64853;53.200;6.080;2022-11-24T07:00:10;0.50;;;0.22;;
76121;SDS011;64853;53.200;6.080;2022-11-24T07:02:37;0.73;;;0.30;;
76121;SDS011;64853;53.200;6.080;2022-11-24T07:05:04;0.60;;;0.22;;
76121;SDS011;64853;53.200;6.080;2022-11-24T07:07:31;1.95;;;0.30;;
76121;SDS011;64853;53.200;6.080;2022-11-24T07:09:58;0.22;;;0.10;;
76121;SDS011;64853;53.200;6.080;2022-11-24T07:12:24;1.85;;;0.70;;
76121;SDS011;64853;53.200;6.080;2022-11-24T07:14:50;0.57;;;0.20;;
76121;SDS011;64853;53.200;6.080;2022-11-24T07:17:18;0.40;;;0.20;;
76121;SDS011;64853;53.200;6.080;2022-11-24T07:19:45;1.70;;;0.38;;
76121;SDS011;64853;53.200;6.080;2022-11-24T07:22:11;0.73;;;0.20;;
76121;SDS011;64853;53.200;6.080;2022-11-24T07:24:37;1.42;;;0.43;;
76121;SDS011;64853;53.200;6.080;2022-11-24T07:27:04;0.75;;;0.30;;
76121;SDS011;64853;53.200;6.080;2022-11-24T07:29:30;1.27;;;0.50;;
76121;SDS011;64853;53.200;6.080;2022-11-24T07:31:57;1.50;;;0.40;;
76121;SDS011;64853;53.200;6.080;2022-11-24T07:34:25;1.40;;;0.40;;
76121;SDS011;64853;53.200;6.080;2022-11-24T07:36:51;1.77;;;0.98;;
76121;SDS011;64853;53.200;6.080;2022-11-24T07:39:18;2.00;;;0.35;;
76121;SDS011;64853;53.200;6.080;2022-11-24T07:41:44;0.98;;;0.35;;
76121;SDS011;64853;53.200;6.080;2022-11-24T07:44:11;2.42;;;0.30;;
76121;SDS011;64853;53.200;6.080;2022-11-24T07:46:37;1.08;;;0.30;;
76121;SDS011;64853;53.200;6.080;2022-11-24T07:49:04;0.80;;;0.50;;
76121;SDS011;64853;53.200;6.080;2022-11-24T07:51:31;11.93;;;0.60;;
76121;SDS011;64853;53.200;6.080;2022-11-24T07:53:58;2.08;;;0.40;;
76121;SDS011;64853;53.200;6.080;2022-11-24T07:56:24;1.08;;;0.20;;
76121;SDS011;64853;53.200;6.080;2022-11-24T07:58:51;1.38;;;0.35;;
76121;SDS011;64853;53.200;6.080;2022-11-24T08:01:17;0.52;;;0.20;;
76121;SDS011;64853;53.200;6.080;2022-11-24T08:03:44;1.42;;;0.57;;
76121;SDS011;64853;53.200;6.080;2022-11-24T08:06:11;1.77;;;0.70;;
76121;SDS011;64853;53.200;6.080;2022-11-24T08:08:39;1.42;;;0.60;;
76121;SDS011;64853;53.200;6.080;2022-11-24T08:11:07;1.45;;;0.35;;
76121;SDS011;64853;53.200;6.080;2022-11-24T08:13:34;2.67;;;0.40;;
76121;SDS011;64853;53.200;6.080;2022-11-24T08:16:04;2.42;;;0.50;;
76121;SDS011;64853;53.200;6.080;2022-11-24T08:18:32;1.38;;;0.38;;
76121;SDS011;64853;53.200;6.080;2022-11-24T08:20:59;2.17;;;0.40;;
76121;SDS011;64853;53.200;6.080;2022-11-24T08:23:26;1.73;;;0.35;;
76121;SDS011;64853;53.200;6.080;2022-11-24T08:25:54;1.20;;;0.40;;
76121;SDS011;64853;53.200;6.080;2022-11-24T08:28:21;1.33;;;0.30;;
76121;SDS011;64853;53.200;6.080;2022-11-24T08:30:48;1.85;;;0.45;;
76121;SDS011;64853;53.200;6.080;2022-11-24T08:33:14;1.35;;;0.40;;
76121;SDS011;64853;53.200;6.080;2022-11-24T08:35:41;1.02;;;0.30;;
76121;SDS011;64853;53.200;6.080;2022-11-24T08:38:07;0.65;;;0.28;;
76121;SDS011;64853;53.200;6.080;2022-11-24T08:40:33;0.60;;;0.50;;
76121;SDS011;64853;53.200;6.080;2022-11-24T08:43:01;1.10;;;0.30;;
76121;SDS011;64853;53.200;6.080;2022-11-24T08:45:28;1.25;;;0.57;;
76121;SDS011;64853;53.200;6.080;2022-11-24T08:47:55;0.82;;;0.38;;
76121;SDS011;64853;53.200;6.080;2022-11-24T08:50:23;1.58;;;0.30;;
76121;SDS011;64853;53.200;6.080;2022-11-24T08:52:51;1.13;;;0.55;;
76121;SDS011;64853;53.200;6.080;2022-11-24T08:55:18;0.77;;;0.30;;
76121;SDS011;64853;53.200;6.080;2022-11-24T08:57:44;1.20;;;0.32;;
76121;SDS011;64853;53.200;6.080;2022-11-24T09:00:13;1.02;;;0.45;;
76121;SDS011;64853;53.200;6.080;2022-11-24T09:02:51;1.40;;;0.50;;
76121;SDS011;64853;53.200;6.080;2022-11-24T09:05:18;2.28;;;0.40;;
76121;SDS011;64853;53.200;6.080;2022-11-24T09:07:45;1.90;;;0.40;;
76121;SDS011;64853;53.200;6.080;2022-11-24T09:10:11;1.75;;;0.20;;
76121;SDS011;64853;53.200;6.080;2022-11-24T09:12:37;0.77;;;0.50;;
76121;SDS011;64853;53.200;6.080;2022-11-24T09:15:04;1.50;;;0.25;;
76121;SDS011;64853;53.200;6.080;2022-11-24T09:17:33;0.68;;;0.30;;
76121;SDS011;64853;53.200;6.080;2022-11-24T09:20:00;1.10;;;0.30;;
76121;SDS011;64853;53.200;6.080;2022-11-24T09:22:27;0.68;;;0.32;;
76121;SDS011;64853;53.200;6.080;2022-11-24T09:24:55;0.85;;;0.28;;
76121;SDS011;64853;53.200;6.080;2022-11-24T09:27:21;2.10;;;0.50;;
76121;SDS011;64853;53.200;6.080;2022-11-24T09:29:48;1.75;;;0.47;;
76121;SDS011;64853;53.200;6.080;2022-11-24T09:32:14;1.85;;;0.40;;
76121;SDS011;64853;53.200;6.080;2022-11-24T09:34:42;0.90;;;0.43;;
76121;SDS011;64853;53.200;6.080;2022-11-24T09:37:08;3.45;;;0.45;;
76121;SDS011;64853;53.200;6.080;2022-11-24T09:39:35;0.40;;;0.20;;
76121;SDS011;64853;53.200;6.080;2022-11-24T09:42:04;1.38;;;0.55;;
76121;SDS011;64853;53.200;6.080;2022-11-24T09:44:37;2.58;;;0.35;;
76121;SDS011;64853;53.200;6.080;2022-11-24T09:47:17;1.00;;;0.43;;
76121;SDS011;64853;53.200;6.080;2022-11-24T09:49:57;1.02;;;0.30;;
76121;SDS011;64853;53.200;6.080;2022-11-24T09:52:31;0.70;;;0.50;;
76121;SDS011;64853;53.200;6.080;2022-11-24T09:55:04;0.95;;;0.30;;
76121;SDS011;64853;53.200;6.080;2022-11-24T09:57:53;1.27;;;0.40;;
76121;SDS011;64853;53.200;6.080;2022-11-24T10:00:28;1.25;;;0.30;;
76121;SDS011;64853;53.200;6.080;2022-11-24T10:02:54;0.98;;;0.28;;
76121;SDS011;64853;53.200;6.080;2022-11-24T10:05:24;1.02;;;0.28;;
76121;SDS011;64853;53.200;6.080;2022-11-24T10:07:57;1.75;;;0.60;;
76121;SDS011;64853;53.200;6.080;2022-11-24T10:10:33;0.68;;;0.40;;
76121;SDS011;64853;53.200;6.080;2022-11-24T10:13:13;1.02;;;0.30;;
76121;SDS011;64853;53.200;6.080;2022-11-24T10:18:27;1.42;;;0.32;;
76121;SDS011;64853;53.200;6.080;2022-11-24T10:21:06;1.00;;;0.28;;
76121;SDS011;64853;53.200;6.080;2022-11-24T10:23:52;1.05;;;0.30;;
76121;SDS011;64853;53.200;6.080;2022-11-24T10:26:30;0.85;;;0.30;;
76121;SDS011;64853;53.200;6.080;2022-11-24T10:29:01;1.33;;;0.30;;
76121;SDS011;64853;53.200;6.080;2022-11-24T10:31:43;0.45;;;0.20;;
76121;SDS011;64853;53.200;6.080;2022-11-24T10:34:11;0.90;;;0.30;;
76121;SDS011;64853;53.200;6.080;2022-11-24T10:36:44;0.28;;;0.20;;
76121;SDS011;64853;53.200;6.080;2022-11-24T10:39:18;1.58;;;0.20;;
76121;SDS011;64853;53.200;6.080;2022-11-24T10:41:49;0.68;;;0.35;;
76121;SDS011;64853;53.200;6.080;2022-11-24T10:44:17;2.63;;;0.30;;
76121;SDS011;64853;53.200;6.080;2022-11-24T10:46:44;0.85;;;0.30;;
76121;SDS011;64853;53.200;6.080;2022-11-24T10:49:13;1.13;;;0.35;;
76121;SDS011;64853;53.200;6.080;2022-11-24T10:51:51;0.30;;;0.20;;
76121;SDS011;64853;53.200;6.080;2022-11-24T10:54:25;0.55;;;0.20;;
76121;SDS011;64853;53.200;6.080;2022-11-24T10:56:52;0.73;;;0.20;;
76121;SDS011;64853;53.200;6.080;2022-11-24T10:59:21;0.45;;;0.17;;
76121;SDS011;64853;53.200;6.080;2022-11-24T11:01:58;0.60;;;0.10;;
76121;SDS011;64853;53.200;6.080;2022-11-24T11:04:26;1.48;;;0.20;;
76121;SDS011;64853;53.200;6.080;2022-11-24T11:07:08;0.98;;;0.25;;
76121;SDS011;64853;53.200;6.080;2022-11-24T11:09:42;1.35;;;0.25;;
76121;SDS011;64853;53.200;6.080;2022-11-24T11:12:09;0.47;;;0.20;;
76121;SDS011;64853;53.200;6.080;2022-11-24T11:14:37;3.55;;;0.30;;
76121;SDS011;64853;53.200;6.080;2022-11-24T11:20:03;6.65;;;0.40;;
76121;SDS011;64853;53.200;6.080;2022-11-24T11:22:34;5.07;;;0.38;;
76121;SDS011;64853;53.200;6.080;2022-11-24T11:25:04;0.95;;;0.50;;
76121;SDS011;64853;53.200;6.080;2022-11-24T11:27:41;1.38;;;0.30;;
76121;SDS011;64853;53.200;6.080;2022-11-24T11:30:18;1.98;;;0.30;;
76121;SDS011;64853;53.200;6.080;2022-11-24T11:32:51;1.90;;;0.40;;
76121;SDS011;64853;53.200;6.080;2022-11-24T11:35:21;1.98;;;0.30;;
76121;SDS011;64853;53.200;6.080;2022-11-24T11:37:51;1.42;;;0.30;;
76121;SDS011;64853;53.200;6.080;2022-11-24T11:40:20;0.40;;;0.20;;
76121;SDS011;64853;53.200;6.080;2022-11-24T11:42:50;1.13;;;0.20;;
76121;SDS011;64853;53.200;6.080;2022-11-24T11:45:21;0.73;;;0.10;;
76121;SDS011;64853;53.200;6.080;2022-11-24T11:47:51;0.88;;;0.20;;
76121;SDS011;64853;53.200;6.080;2022-11-24T11:50:23;1.52;;;0.30;;
76121;SDS011;64853;53.200;6.080;2022-11-24T11:52:59;1.38;;;0.22;;
76121;SDS011;64853;53.200;6.080;2022-11-24T11:55:40;1.17;;;0.47;;
76121;SDS011;64853;53.200;6.080;2022-11-24T11:58:19;0.73;;;0.25;;
76121;SDS011;64853;53.200;6.080;2022-11-24T12:01:03;0.68;;;0.25;;
76121;SDS011;64853;53.200;6.080;2022-11-24T12:03:41;1.00;;;0.30;;
76121;SDS011;64853;53.200;6.080;2022-11-24T12:06:23;0.70;;;0.30;;
76121;SDS011;64853;53.200;6.080;2022-11-24T12:11:35;0.17;;;0.13;;
76121;SDS011;64853;53.200;6.080;2022-11-24T12:14:10;1.95;;;0.22;;
76121;SDS011;64853;53.200;6.080;2022-11-24T12:16:46;2.05;;;0.32;;
76121;SDS011;64853;53.200;6.080;2022-11-24T12:19:33;0.85;;;0.40;;
76121;SDS011;64853;53.200;6.080;2022-11-24T12:22:08;1.38;;;0.60;;
76121;SDS011;64853;53.200;6.080;2022-11-24T12:24:46;1.38;;;0.60;;
76121;SDS011;64853;53.200;6.080;2022-11-24T12:27:23;0.95;;;0.40;;
76121;SDS011;64853;53.200;6.080;2022-11-24T12:30:02;1.05;;;0.50;;
76121;SDS011;64853;53.200;6.080;2022-11-24T12:32:41;1.48;;;0.60;;
76121;SDS011;64853;53.200;6.080;2022-11-24T12:35:31;1.48;;;0.47;;
76121;SDS011;64853;53.200;6.080;2022-11-24T12:38:04;2.20;;;0.63;;
76121;SDS011;64853;53.200;6.080;2022-11-24T12:40:57;1.20;;;0.60;;
76121;SDS011;64853;53.200;6.080;2022-11-24T12:43:33;1.92;;;0.50;;
76121;SDS011;64853;53.200;6.080;2022-11-24T12:46:03;1.73;;;0.70;;
76121;SDS011;64853;53.200;6.080;2022-11-24T12:48:38;1.50;;;0.60;;
76121;SDS011;64853;53.200;6.080;2022-11-24T12:51:14;1.65;;;0.70;;
76121;SDS011;64853;53.200;6.080;2022-11-24T12:53:43;1.42;;;0.40;;
76121;SDS011;64853;53.200;6.080;2022-11-24T12:56:13;1.80;;;0.40;;
76121;SDS011;64853;53.200;6.080;2022-11-24T12:58:44;1.88;;;0.60;;
76121;SDS011;64853;53.200;6.080;2022-11-24T13:01:20;4.25;;;0.70;;
76121;SDS011;64853;53.200;6.080;2022-11-24T13:03:57;5.38;;;1.38;;
76121;SDS011;64853;53.200;6.080;2022-11-24T13:06:34;6.10;;;0.82;;
76121;SDS011;64853;53.200;6.080;2022-11-24T13:09:08;7.43;;;1.25;;
76121;SDS011;64853;53.200;6.080;2022-11-24T13:11:41;1.92;;;0.82;;
76121;SDS011;64853;53.200;6.080;2022-11-24T13:14:15;3.47;;;1.00;;
76121;SDS011;64853;53.200;6.080;2022-11-24T13:16:47;4.15;;;1.25;;
76121;SDS011;64853;53.200;6.080;2022-11-24T13:19:16;6.38;;;1.33;;
76121;SDS011;64853;53.200;6.080;2022-11-24T13:21:49;5.88;;;1.23;;
76121;SDS011;64853;53.200;6.080;2022-11-24T13:24:25;3.88;;;0.80;;
76121;SDS011;64853;53.200;6.080;2022-11-24T13:27:17;5.90;;;0.93;;
76121;SDS011;64853;53.200;6.080;2022-11-24T13:30:08;3.10;;;0.90;;
76121;SDS011;64853;53.200;6.080;2022-11-24T13:39:17;2.17;;;0.50;;
76121;SDS011;64853;53.200;6.080;2022-11-24T13:44:47;2.25;;;0.73;;
76121;SDS011;64853;53.200;6.080;2022-11-24T13:47:31;3.00;;;0.55;;
76121;SDS011;64853;53.200;6.080;2022-11-24T13:49:59;4.82;;;0.85;;
76121;SDS011;64853;53.200;6.080;2022-11-24T13:52:37;1.98;;;0.47;;
76121;SDS011;64853;53.200;6.080;2022-11-24T13:55:18;1.75;;;0.60;;
76121;SDS011;64853;53.200;6.080;2022-11-24T13:57:49;2.60;;;0.50;;
76121;SDS011;64853;53.200;6.080;2022-11-24T14:00:18;3.60;;;0.50;;
76121;SDS011;64853;53.200;6.080;2022-11-24T14:02:46;1.50;;;0.40;;
76121;SDS011;64853;53.200;6.080;2022-11-24T14:05:14;3.20;;;0.77;;
76121;SDS011;64853;53.200;6.080;2022-11-24T14:07:42;1.20;;;0.50;;
76121;SDS011;64853;53.200;6.080;2022-11-24T14:10:12;1.88;;;0.68;;
76121;SDS011;64853;53.200;6.080;2022-11-24T14:12:41;2.22;;;0.45;;
76121;SDS011;64853;53.200;6.080;2022-11-24T14:15:22;3.58;;;1.02;;
76121;SDS011;64853;53.200;6.080;2022-11-24T14:17:51;3.00;;;1.02;;
76121;SDS011;64853;53.200;6.080;2022-11-24T14:20:21;2.55;;;1.00;;
76121;SDS011;64853;53.200;6.080;2022-11-24T14:22:49;2.58;;;0.90;;
76121;SDS011;64853;53.200;6.080;2022-11-24T14:25:19;2.65;;;1.13;;
76121;SDS011;64853;53.200;6.080;2022-11-24T14:27:51;2.72;;;1.10;;
76121;SDS011;64853;53.200;6.080;2022-11-24T14:30:19;3.78;;;1.60;;
76121;SDS011;64853;53.200;6.080;2022-11-24T14:32:54;2.05;;;1.27;;
76121;SDS011;64853;53.200;6.080;2022-11-24T14:35:22;3.33;;;1.38;;
76121;SDS011;64853;53.200;6.080;2022-11-24T14:37:50;4.55;;;1.13;;
76121;SDS011;64853;53.200;6.080;2022-11-24T14:43:14;3.78;;;1.95;;
76121;SDS011;64853;53.200;6.080;2022-11-24T14:45:47;3.72;;;1.73;;
76121;SDS011;64853;53.200;6.080;2022-11-24T14:48:17;5.10;;;2.50;;
76121;SDS011;64853;53.200;6.080;2022-11-24T14:50:48;4.03;;;2.05;;
76121;SDS011;64853;53.200;6.080;2022-11-24T14:53:15;3.50;;;1.33;;
76121;SDS011;64853;53.200;6.080;2022-11-24T15:00:46;4.00;;;1.10;;
76121;SDS011;64853;53.200;6.080;2022-11-24T15:03:34;4.70;;;1.30;;
76121;SDS011;64853;53.200;6.080;2022-11-24T15:06:00;7.03;;;1.50;;
76121;SDS011;64853;53.200;6.080;2022-11-24T15:08:27;3.08;;;1.10;;
76121;SDS011;64853;53.200;6.080;2022-11-24T15:11:01;2.78;;;0.93;;
76121;SDS011;64853;53.200;6.080;2022-11-24T15:13:32;3.80;;;1.20;;
76121;SDS011;64853;53.200;6.080;2022-11-24T15:16:02;3.95;;;1.23;;
76121;SDS011;64853;53.200;6.080;2022-11-24T15:18:34;3.55;;;0.95;;
76121;SDS011;64853;53.200;6.080;2022-11-24T15:21:05;3.17;;;0.80;;
76121;SDS011;64853;53.200;6.080;2022-11-24T15:23:33;4.82;;;1.52;;
76121;SDS011;64853;53.200;6.080;2022-11-24T15:28:48;1.58;;;0.80;;
76121;SDS011;64853;53.200;6.080;2022-11-24T15:31:15;2.97;;;0.90;;
76121;SDS011;64853;53.200;6.080;2022-11-24T15:33:42;3.28;;;1.02;;
76121;SDS011;64853;53.200;6.080;2022-11-24T15:36:09;1.50;;;0.50;;